Tiempo atmosférico en la estación meteorológica de Reus Aeropuerto, Tarragona (71 m.)



Fecha
DESCASC
Temp. máxima en grados centígrados (hora)
DESCASC
Temp. mínima en grados centígrados (hora)
DESCASC
Temp. media en grados centígrados
DESCASC
Racha de viento máxima en m/sg (hora)
DESCASC
Velocidad máxima media en intervalos de 10 minutos(hora)
DESCASC
Precipitaciones diarias en mm
DESCASC
Precipitaciones de 00:00 a 06:00 en mm
DESCASC
Precipitaciones de 06:00 a 12:00 en mm
DESCASC
Precipitaciones de 12:00 a 18:00 en mm
DESCASC
Precipitaciones de 18:00 a 24:00 en mm
DESCASC
05-04-2020 17.7 (13:00) 5.5 (06:50) 11.6 6.67 (17:20) 4.44 (15:00) 0 0 0 0 0
04-04-2020 17.6 (13:40) 4.8 (07:40) 11.2 6.67 (14:00) 4.17 (14:40) 0 0 0 0 0
03-04-2020 18.3 (15:20) 7.8 (07:10) 13 9.72 (05:30) 7.22 (05:30) 2.4 2.4 0 0 0
02-04-2020 13.8 (16:30) 8.9 (00:00) 11.3 8.89 (00:40) 5 (00:40) 3.8 0.6 1.1 0.7 1.4
01-04-2020 12 (12:30) 9.2 (00:00) 10.6 15 (10:50) 10.28 (11:00) 3.4 0.2 0 2.4 0.8
31-03-2020 11.2 (12:50) 6.6 (00:00) 8.9 9.72 (09:50) 6.94 (09:50) 4.3 0 0 3.4 0.9
30-03-2020 11.8 (00:40) 6.1 (00:00) 9 12.78 (05:40) 9.72 (06:00) 0.8 0 0 0.8 0
29-03-2020 20.9 (16:20) 7.1 (00:00) 14 11.67 (17:00) 8.61 (15:00) 0 0 0 0 0
28-03-2020 18.9 (14:30) 8.2 (00:00) 13.5 -- (--) -- (--) 0 0 0 0 0
27-03-2020 16.2 (14:10) 1 (00:00) 8.6 8.33 (14:20) 6.11 (14:20) 0 0 0 0 0
26-03-2020 12.5 (12:30) 3.6 (00:00) 8 9.17 (15:10) 5.83 (14:30) 27.8 0 0 26.3 1.5
25-03-2020 11.2 (16:30) 6.8 (00:00) 9 11.39 (10:20) 8.06 (10:20) 0.3 0.3 0 0 0
24-03-2020 14.2 (10:10) 9.4 (00:00) 11.8 12.5 (16:40) 7.78 (16:20) 0 0 0 0 0
23-03-2020 18.2 (12:20) 11 (00:00) 14.6 12.5 (14:00) 8.06 (14:00) 0 0 0 0 0
22-03-2020 16.1 (10:50) 5.8 (05:10) 11 8.89 (12:00) 6.11 (19:50) 4.3 0 0 0 4.3
21-03-2020 -- (--) -- (--) -- -- (--) -- (--) -- 0 -- 0 0
20-03-2020 16.8 (13:20) 7.4 (00:00) 12.1 8.33 (12:40) 5.83 (12:50) 0 0 0 0 0
19-03-2020 16.5 (15:10) 6.1 (00:00) 11.3 6.11 (12:00) 3.89 (07:20) 0 0 0 0 0
18-03-2020 -- (--) -- (--) -- -- (--) -- (--) 0 0 0 0 0
17-03-2020 18.8 (15:00) 11.1 (00:00) 14.9 12.5 (04:00) 8.61 (01:30) 1.5 1 0.5 0 0
16-03-2020 13.3 (14:10) 10.9 (00:00) 12.1 16.11 (19:30) 11.67 (19:30) 17 0 8.9 5.9 2.2
15-03-2020 17.3 (14:00) 7.8 (00:00) 12.5 7.78 (14:20) 5 (14:50) 0 0 0 0 0
14-03-2020 21.4 (15:00) 8.4 (00:00) 14.9 10.83 (15:30) 7.78 (15:50) 0 0 0 0 0
13-03-2020 19.1 (11:20) 7.7 (07:20) 13.4 8.89 (15:40) 6.39 (15:40) 0 0 0 0 0
12-03-2020 21.6 (13:10) 6.9 (00:00) 14.3 5.83 (01:10) 4.44 (02:00) 0 0 0 0 0
11-03-2020 19.7 (15:00) 6.6 (00:00) 13.2 5.83 (12:20) 3.89 (02:40) 0 0 0 0 0

Gráficas

Temp. máximas Temp. mínimas Temp. medias Precipitaciones Rachas de viento máximas Velocidades máximas media en intervalos de 10 minutos

Datos horarios

Fecha y hora oficial Temperatura (ºC) Velocidad del viento (km/h) Dirección del viento Racha (km/h) Dirección de racha Precipitación (mm) Presión (hPa) Tendencia (hPa) Humedad (%)
2020-04-09 23:00:00 11.1 -- -- -- -- 0 1013.9 1 80
2020-04-09 22:00:00 12.4 6 Norte 9 Norte 0 1013.6 1 77
2020-04-09 21:00:00 13.8 3 Sur 11 Sur 0 1013.1 0.6 70
2020-04-09 20:00:00 15.8 10 Sur 15 Sur 0 1012.9 0.3 62
2020-04-09 19:00:00 17.5 9 Sur 18 Sur 0 1012.6 -0.6 54
2020-04-09 18:00:00 18.4 13 Sur 24 Sur 0 1012.5 -1.1 50
2020-04-09 17:00:00 19.4 13 Sur 22 Sudeste 0 1012.6 -1.3 44
2020-04-09 16:00:00 19 12 Sur 24 Sur 0 1013.2 -0.9 45
2020-04-09 15:00:00 18.9 13 Sur 26 Sudeste 0 1013.6 -0.8 46
2020-04-09 14:00:00 18.7 14 Sudeste 24 Sudeste 0 1013.9 -0.5 48
2020-04-09 13:00:00 18.9 12 Sur 21 Sur 0 1014.1 0 50
2020-04-09 12:00:00 18.5 9 Sur 15 Sur 0 1014.4 0.5 52
2020-04-09 11:00:00 17.1 4 Norte 11 Este 0 1014.4 1 52
2020-04-09 10:00:00 15 7 Nordeste 11 Este 0 1014.1 1.2 55
2020-04-09 09:00:00 11.4 4 Nordeste 11 Norte 0 1013.9 0.9 70
2020-04-09 08:00:00 7.2 6 Norte 9 Nordeste 0 1013.4 0.2 86
2020-04-09 07:00:00 8.5 9 Norte 15 Norte 0 1012.9 -0.7 79
2020-04-09 06:00:00 8.3 12 Norte 13 Norte 0 1013 -1.3 83
2020-04-09 05:00:00 7.9 10 Norte 15 Norte 0 1013.2 -1.5 84
2020-04-09 04:00:00 7.5 9 Norte 13 Noroeste 0 1013.6 -1.3 87
2020-04-09 03:00:00 8.3 9 Norte 11 Norte 0 1014.3 -- 84
2020-04-09 02:00:00 -- 11 Norte 13 Norte 0 1014.7 -0.6 --
2020-04-09 01:00:00 9.8 9 Norte 13 Norte 0 1014.9 -0.6 82
2020-04-09 00:00:00 10.9 -- -- -- -- 0 -- -- 83
2020-04-08 23:00:00 12.4 3 Noroeste 5 Noroeste 0 1015.3 0.4 81
2020-04-08 22:00:00 13.5 2 Oeste 5 Sudoeste 0 1015.5 1 75
2020-04-08 21:00:00 13.8 4 Sudoeste 11 Sur 0 1015.2 0.8 72
2020-04-08 20:00:00 15 9 Sur 13 Sudeste 0 1014.9 0.4 64
2020-04-08 19:00:00 17.3 6 Sur 15 Sur 0 1014.5 -0.7 49
2020-04-08 18:00:00 18.4 11 Sur 18 Sudeste 0 1014.4 -1.3 42
2020-04-08 17:00:00 19.1 10 Sur 17 Sur 0 1014.5 -1.8 41
2020-04-08 16:00:00 17.3 11 Sudeste 15 Sudeste 0 1015.2 -1.3 50
2020-04-08 15:00:00 16.6 9 Sur 17 Sudeste 0 1015.7 -1.2 52
2020-04-08 14:00:00 17.1 10 Sur 17 Sur 0 1016.3 -0.8 50
2020-04-08 13:00:00 17.6 12 Sur 22 Sudeste 0 1016.5 -0.4 48
2020-04-08 12:00:00 17.6 3 Sur 9 Sur 0 1016.9 0.3 43
2020-04-08 11:00:00 15.7 6 Este 11 Este 0 1017.1 0.8 51
2020-04-08 10:00:00 12.5 9 Norte 13 Norte 0 1016.9 0.6 61
2020-04-08 09:00:00 10.8 10 Nordeste 13 Nordeste 0 1016.6 0.1 70
2020-04-08 08:00:00 7.8 8 Norte 11 Norte 0 1016.3 -0.5 80
2020-04-08 07:00:00 7.9 9 Norte 15 Norte 0 1016.3 -0.9 76
2020-04-08 06:00:00 7.5 12 Norte 15 Norte 0 1016.5 -1 78
2020-04-08 05:00:00 8.2 9 Nordeste 11 Norte 0 1016.8 -1.2 78
2020-04-08 04:00:00 7.8 9 Norte 11 Norte 0 1017.2 -0.9 79
2020-04-08 03:00:00 8.3 6 Norte 11 Norte 0 1017.5 -0.6 78
2020-04-08 02:00:00 9.3 10 Norte 15 Norte 0 1018 0.1 77
2020-04-08 01:00:00 9.6 7 Nordeste 13 Noroeste 0 1018.1 0.4 85
2020-04-08 00:00:00 -- 9 Noroeste 11 Noroeste 0 1018.1 0.7 --
2020-04-07 23:00:00 12.9 4 Noroeste 5 Noroeste 0 1017.9 0.8 71
2020-04-07 22:00:00 13.3 0 Calma -- -- 0 1017.7 0.6 66
2020-04-07 21:00:00 13.7 6 Sudoeste 8 Sudoeste 0 1017.4 0.4 64
2020-04-07 20:00:00 14.5 6 Sur 11 Sur 0 1017.1 -0.2 53
2020-04-07 19:00:00 15.4 8 Sur 15 Sur 0 1017.1 -0.1 63
2020-04-07 18:00:00 16.2 11 Sur 18 Sur 0 1017 -0.6 66
2020-04-07 17:00:00 16.5 13 Sur 22 Este 0 1017.3 -0.7 65
2020-04-07 16:00:00 17.8 14 Sudeste 26 Sudeste 0 1017.2 -1.1 56
2020-04-07 15:00:00 18.1 13 Sudeste 22 Sur 0 1017.6 -0.7 59
2020-04-07 14:00:00 17.8 8 Sur 18 Sur 0 1018 -0.1 62
2020-04-07 13:00:00 15 11 Sudeste 21 Sudeste 0 1018.3 0.7 80
2020-04-07 12:00:00 15.3 12 Sudeste 22 Sudeste 0 1018.3 1 79
2020-04-07 11:00:00 14.7 14 Sudeste 21 Este 0 1018.1 1.2 82
2020-04-07 10:00:00 14 9 Este 13 Este 0 1017.6 1.1 85
2020-04-07 09:00:00 13.1 6 Nordeste 9 Nordeste 0 1017.3 0.8 87
2020-04-07 08:00:00 12.6 8 Nordeste 9 Nordeste 0 1016.9 0.5 86
2020-04-07 07:00:00 12.5 6 Nordeste 8 Nordeste 0 1016.5 -0.1 85
2020-04-07 06:00:00 12.5 5 Nordeste 9 Nordeste 0 1016.5 -0.5 85
2020-04-07 05:00:00 12.4 7 Nordeste 9 Norte 0 1016.4 -0.7 85
2020-04-07 04:00:00 12.3 8 Norte 9 Norte 0 1016.6 -0.4 86
2020-04-07 03:00:00 12.3 7 Norte 11 Nordeste 0 1017 0.1 87
2020-04-07 02:00:00 11.9 7 Nordeste -- -- 0 1017.1 0.2 89
2020-04-07 01:00:00 12.2 5 Nordeste -- -- 0 1017 0.3 88
2020-04-07 00:00:00 12.4 3 Nordeste 9 Este 0 1016.9 0.7 88
2020-04-06 23:00:00 12.8 0 Calma -- -- 0 1016.9 1.2 87
2020-04-06 22:00:00 12.7 0 Calma 5 Este 0 1016.7 1.4 86
2020-04-06 21:00:00 12.9 5 Sur 11 Sur 0 1016.2 1 86
2020-04-06 20:00:00 13.8 9 Sur 13 Sur 0 1015.7 0.7 81
2020-04-06 19:00:00 14.6 10 Sur 18 Sur 0 1015.3 -0.2 75
2020-04-06 18:00:00 16.2 13 Sur 33 Sur 0 1015.2 -0.7 65
2020-04-06 17:00:00 17.4 13 Sudeste 24 Sur 0 1015 -0.6 63
2020-04-06 16:00:00 17.9 13 Sur 24 Sudeste 0 1015.5 0 59
2020-04-06 15:00:00 17.5 13 Sudeste 28 Sur 0 1015.9 0.5 64
2020-04-06 14:00:00 17.3 12 Sur 28 Sudeste 0 1015.6 0.4 63
2020-04-06 13:00:00 16.9 13 Sudeste 24 Sudeste 0 1015.5 1.1 64
2020-04-06 12:00:00 17.2 12 Sudeste 21 Sudeste 0 1015.4 1.7 63
2020-04-06 11:00:00 16 9 Sudeste 17 Este 0 1015.2 2 69
2020-04-06 10:00:00 14 7 Nordeste 13 Norte 0 1014.4 1.8 77
2020-04-06 09:00:00 11.9 10 Nordeste 15 Norte 0 1013.7 1.2 82
2020-04-06 08:00:00 9.1 12 Norte 15 Norte 0 1013.2 0.7 90
2020-04-06 07:00:00 9.1 12 Norte 15 Norte 0 1012.6 0 90
2020-04-06 06:00:00 8.4 10 Norte 13 Norte 0 1012.5 -0.1 92
2020-04-06 05:00:00 8.6 11 Norte 13 Norte 0 1012.5 -0.4 89
2020-04-06 04:00:00 9 10 Norte 13 Norte 0 1012.6 -0.2 87
2020-04-06 03:00:00 9.6 10 Norte 15 Norte 0 1012.6 0.3 84
2020-04-06 02:00:00 10.2 10 Norte 17 Norte 0 1012.9 0.8 86
2020-04-06 01:00:00 9.7 10 Norte 13 Norte 0 1012.8 0.8 90
2020-04-06 00:00:00 9.7 4 Norte 11 Norte 0 1012.3 0.9 90
2020-04-05 23:00:00 10.2 11 Norte 13 Norte 0 1012.1 1.2 88
2020-04-05 22:00:00 11.4 4 Noroeste 9 Oeste 0 1012 0.9 84
2020-04-05 21:00:00 11.7 5 Sudoeste 11 Sur 0 1011.4 0.2 82
2020-04-05 20:00:00 13 10 Sur 17 Sur 0 1010.9 -0.5 77
2020-04-05 19:00:00 16.1 11 Sur 21 Sudoeste 0 1011.1 -0.6 66
2020-04-05 18:00:00 16.3 13 Sudoeste 24 Sudeste 0 1011.2 -0.8 62
2020-04-05 17:00:00 15.2 15 Sur 21 Sudeste 0 1011.4 -0.8 70
2020-04-05 16:00:00 16.8 13 Sur 22 Sur 0 1011.7 -1.1 64
2020-04-05 15:00:00 17.2 16 Sur 22 Sur 0 1012 -0.9 62
2020-04-05 14:00:00 17 13 Sur 21 Sudeste 0 1012.2 -0.8 60
2020-04-05 13:00:00 17.5 11 Sur 21 Sudeste 0 1012.8 -0.1 58
2020-04-05 12:00:00 16.6 4 Sur 21 Sur 0 1012.9 0.3 57
2020-04-05 11:00:00 15.7 4 Sur 11 Sur 0 1013 0.8 64
2020-04-05 10:00:00 13.3 7 Nordeste 11 Norte 0 1012.9 1.6 70
2020-04-05 09:00:00 9.4 7 Nordeste 15 Norte 0 1012.6 1.5 84
2020-04-05 08:00:00 6.2 6 Nordeste 13 Norte 0 1012.2 0.9 91
2020-04-05 07:00:00 5.6 10 Nordeste 13 Nordeste 0 1011.3 -0.3 92
2020-04-05 06:00:00 6.1 8 Norte 15 Norte 0 1011.1 -1 91
2020-04-05 05:00:00 6.2 12 Norte 15 Norte 0 1011.3 -1.2 91
2020-04-05 04:00:00 8.2 12 Norte 17 Norte 0 1011.6 -0.9 90
2020-04-05 03:00:00 8 10 Norte 15 Norte 0 1012.1 -0.3 91
2020-04-05 02:00:00 7.8 11 Norte 13 Norte 0 1012.5 0.1 91
2020-04-05 01:00:00 7 6 Nordeste -- -- 0 1012.5 0.4 90
2020-04-05 00:00:00 9 11 Noroeste 13 Noroeste 0 1012.4 1 91
2020-04-04 23:00:00 9.5 9 Noroeste 11 Noroeste 0 1012.4 1.5 90
2020-04-04 22:00:00 11.1 6 Sudoeste 9 Sudoeste 0 1012.1 1.1 87
2020-04-04 21:00:00 11.9 5 Sudoeste 11 Sudoeste 0 1011.4 0.7 84
2020-04-04 20:00:00 14.1 8 Sudoeste 15 Sudoeste 0 1010.9 0.2 74
2020-04-04 19:00:00 15 10 Sudoeste 18 Sudoeste 0 1011 0 70
2020-04-04 18:00:00 16.1 13 Sudoeste 21 Sur 0 1010.7 -0.8 65
2020-04-04 17:00:00 16.9 13 Sudoeste 22 Sudoeste 0 1010.7 -0.8 63
2020-04-04 16:00:00 17.1 14 Sur 22 Sur 0 1011 -0.5 60
2020-04-04 15:00:00 17.1 15 Sur 24 Sur 0 1011.5 -0.3 57
2020-04-04 14:00:00 17.6 13 Sur 24 Sur 0 1011.5 -0.1 50
2020-04-04 13:00:00 17 10 Sur 17 Sur 0 1011.5 0.4 56
2020-04-04 12:00:00 16.3 9 Sur 17 Sur 0 1011.8 1 60
2020-04-04 11:00:00 15 6 Sur 13 Sur 0 1011.6 1.6 63
2020-04-04 10:00:00 12.9 8 Nordeste 13 Nordeste 0 1011.1 1.4 65
2020-04-04 09:00:00 9.1 9 Nordeste 15 Nordeste 0 1010.8 1.3 79
2020-04-04 08:00:00 5.3 9 Norte 13 Norte 0 1010 0.3 91
2020-04-04 07:00:00 5.1 6 Nordeste 15 Nordeste 0 1009.7 -0.1 91
2020-04-04 06:00:00 5.6 11 Norte 13 Norte 0 1009.5 -0.5 89
2020-04-04 05:00:00 6 8 Nordeste 17 Norte 0 1009.7 -0.3 89
2020-04-04 04:00:00 6.3 8 Nordeste 17 Nordeste 0 1009.8 -0.1 86
2020-04-04 03:00:00 8.2 13 Norte 18 Norte 0 1010 0.5 83
2020-04-04 02:00:00 8.6 14 Norte 17 Norte 0 1010 0.9 82
2020-04-04 01:00:00 8.7 14 Norte 17 Norte 0 1009.9 1.3 82
2020-04-04 00:00:00 9.1 13 Norte 17 Norte 0 1009.5 1.5 81
2020-04-03 23:00:00 8.8 11 Norte 13 Nordeste 0 1009.1 1.4 83
2020-04-03 22:00:00 10.6 5 Sur 11 Sur 0 1008.6 1.2 77
2020-04-03 21:00:00 11.9 0 Calma 13 Sudoeste 0 1008 1.1 73
2020-04-03 20:00:00 13.6 10 Sudoeste 17 Sur 0 1007.7 0.9 63
2020-04-03 19:00:00 15.5 15 Sur 28 Sudoeste 0 1007.4 0.5 52
2020-04-03 18:00:00 16.1 18 Sur 26 Sur 0 1006.9 -0.3 46
2020-04-03 17:00:00 17.6 18 Sur 26 Sur 0 1006.8 -0.8 44
2020-04-03 16:00:00 17.6 19 Sur 32 Sur 0 1006.9 -0.9 45
2020-04-03 15:00:00 17.9 12 Sudoeste 32 Sudoeste 0 1007.2 -0.6 44
2020-04-03 14:00:00 17.1 8 Sur 17 Oeste 0 1007.6 0.2 46
2020-04-03 13:00:00 16.3 5 Sudoeste 21 Oeste 0 1007.8 1.1 52
2020-04-03 12:00:00 13.8 14 Oeste 24 Oeste 0 1007.8 1.7 58
2020-04-03 11:00:00 11.4 17 Oeste 30 Noroeste 0 1007.4 1.9 62
2020-04-03 10:00:00 10.2 21 Noroeste 33 Noroeste 0 1006.7 1.6 64
2020-04-03 09:00:00 9.5 19 Noroeste 30 Noroeste 0 1006.1 1.5 66
2020-04-03 08:00:00 8.3 24 Oeste 35 Oeste 0 1005.5 1 71
2020-04-03 07:00:00 8.1 17 Noroeste 35 Oeste 0 1005.1 0.6 76
2020-04-03 06:00:00 8.6 21 Oeste 35 Oeste 0 1004.6 -0.4 79
2020-04-03 05:00:00 9.4 18 Oeste 28 Oeste 0 1004.5 -0.8 88
2020-04-03 04:00:00 8.7 10 Oeste 13 Oeste 0 1004.5 -1 93
2020-04-03 03:00:00 9.8 8 Oeste 13 Oeste 0 1005 -0.7 94
2020-04-03 02:00:00 9.9 7 Oeste 17 Oeste 1.5 1005.3 -0.1 93
2020-04-03 01:00:00 9.9 12 Noroeste 17 Noroeste 0.9 1005.5 0.3 93
2020-04-03 00:00:00 10.2 10 Noroeste 15 Noroeste 0 1005.7 1.3 91
2020-04-02 23:00:00 10.2 8 Oeste 26 Oeste 0.2 1005.4 1.5 92
2020-04-02 22:00:00 10.3 9 Noroeste 13 Noroeste 0.3 1005.2 1.7 91
2020-04-02 21:00:00 10.1 10 Oeste 15 Oeste 0.3 1004.4 1.3 91
2020-04-02 20:00:00 10.6 2 Sudoeste 5 Sur 0.6 1003.9 1 88
2020-04-02 19:00:00 11.1 2 Sudeste 15 Sur 0 1003.5 0.5 81
2020-04-02 18:00:00 12.1 11 Sur 17 Sur 0 1003.1 -0.1 76
2020-04-02 17:00:00 12.3 12 Sur 22 Sur 0 1002.9 -0.5 75
2020-04-02 16:00:00 12.3 12 Sur 17 Sur 0.3 1003 -0.6 81
2020-04-02 15:00:00 12.3 9 Sur 13 Sur 0.2 1003.2 -0.1 83
2020-04-02 14:00:00 12.3 3 Este 8 Este 0 1003.4 0.3 77
2020-04-02 13:00:00 11.9 7 Noroeste 13 Noroeste 0.2 1003.6 0.9 79
2020-04-02 12:00:00 11.8 9 Oeste 13 Oeste 0.3 1003.3 1.2 81
2020-04-02 11:00:00 11.2 0 Calma 9 Norte 0.5 1003.1 1 83
2020-04-02 10:00:00 10.8 0 Calma 9 Norte 0 1002.7 0.6 84
2020-04-02 09:00:00 9.9 0 Calma 13 Noroeste 0 1002.1 -0.1 90
2020-04-02 08:00:00 9.2 11 Noroeste 15 Noroeste 0.2 1002.1 -0.1 94
2020-04-02 07:00:00 9 7 Oeste 9 Norte 0.1 1002.1 -0.5 93
2020-04-02 06:00:00 9.1 6 Norte 13 Noroeste 0.5 1002.2 -0.8 91
2020-04-02 05:00:00 9.1 0 Calma 5 Este 0 1002.2 -1.1 91
2020-04-02 04:00:00 9.3 0 Calma 5 Noroeste 0 1002.6 -1.3 91
2020-04-02 03:00:00 9.3 5 Sudoeste 13 Norte 0 1003 -1.2 89
2020-04-02 02:00:00 9.4 9 Nordeste 15 Nordeste 0.1 1003.3 -1.1 89
2020-04-02 01:00:00 9.7 12 Nordeste 32 Nordeste 0 1003.9 -0.6 85
2020-04-02 00:00:00 9.3 10 Nordeste 22 Nordeste 0.3 1004.2 0.2 91
2020-04-01 23:00:00 9.6 4 Este 15 Nordeste 0.5 1004.4 1.1 88
2020-04-01 22:00:00 10.3 12 Norte 26 Norte 0 1004.5 1.7 81
2020-04-01 21:00:00 10.7 15 Nordeste 30 Nordeste 0 1004 1.3 77
2020-04-01 20:00:00 10.8 20 Nordeste 30 Norte 0 1003.3 0.6 77
2020-04-01 19:00:00 10.9 26 Nordeste 45 Nordeste 0 1002.8 0.2 80
2020-04-01 18:00:00 10.5 22 Nordeste 37 Este 0 1002.7 -0.5 86
2020-04-01 17:00:00 10.7 26 Nordeste 52 Nordeste 0.3 1002.7 -1.5 86
2020-04-01 16:00:00 11.1 32 Nordeste 48 Nordeste 0.5 1002.6 -1.8 84
2020-04-01 15:00:00 10.8 25 Nordeste 46 Nordeste 1.2 1003.2 -1.6 85
2020-04-01 14:00:00 11.2 27 Nordeste 52 Nordeste 0.4 1004.2 -0.7 83
2020-04-01 13:00:00 11.9 32 Nordeste 50 Nordeste 0 1004.4 -0.3 77
2020-04-01 12:00:00 11.6 28 Nordeste 54 Nordeste 0 1004.8 0.1 78
2020-04-01 11:00:00 10.9 37 Nordeste 54 Nordeste 0 1004.9 0.5 80
2020-04-01 10:00:00 10.9 30 Nordeste 46 Nordeste 0 1004.7 0.4 83
2020-04-01 09:00:00 10.7 25 Nordeste 35 Nordeste 0 1004.7 0.3 86
2020-04-01 08:00:00 11.3 26 Nordeste 37 Nordeste 0 1004.4 -0.3 82
2020-04-01 07:00:00 11.7 20 Nordeste 37 Nordeste 0 1004.3 -0.5 80
2020-04-01 06:00:00 11.5 21 Nordeste 33 Nordeste 0 1004.4 -0.9 81
2020-04-01 05:00:00 11.4 18 Nordeste 30 Norte 0 1004.7 -0.9 81
2020-04-01 04:00:00 11 17 Nordeste 30 Nordeste 0.2 1004.8 -1.1 84
2020-04-01 03:00:00 11.5 18 Nordeste 32 Nordeste 0 1005.3 -0.6 79
2020-04-01 02:00:00 11.3 18 Nordeste 32 Nordeste 0 1005.6 -0.2 77
2020-04-01 01:00:00 10.7 17 Nordeste 32 Nordeste 0 1005.9 0.5 79
2020-04-01 00:00:00 11 18 Nordeste 30 Nordeste 0 1005.9 1.2 76
2020-03-31 23:00:00 10.8 15 Nordeste 30 Nordeste 0.1 1005.8 1.7 79
2020-03-31 22:00:00 10.9 18 Nordeste 33 Nordeste 0 1005.4 1.4 77
2020-03-31 21:00:00 10.7 18 Nordeste 32 Nordeste 0 1004.7 1.1 80
2020-03-31 20:00:00 10.3 16 Norte 35 Norte 0.3 1004.1 1 84
2020-03-31 19:00:00 10.7 17 Nordeste 28 Nordeste 0.5 1004 0.7 84
2020-03-31 18:00:00 11.1 19 Nordeste 32 Nordeste 0 1003.6 -0.1 81
2020-03-31 17:00:00 11 21 Nordeste 33 Nordeste 0 1003.1 -1.4 84
2020-03-31 16:00:00 10.8 18 Nordeste 28 Nordeste 0.5 1003.3 -1.5 86
2020-03-31 15:00:00 10.6 18 Nordeste 28 Nordeste 1.3 1003.7 -0.3 87
2020-03-31 14:00:00 10.3 14 Nordeste 21 Nordeste 1.5 1004.5 0.3 85
2020-03-31 13:00:00 11.1 5 Este 30 Este 0.1 1004.8 0.5 73
2020-03-31 12:00:00 11.1 19 Nordeste 33 Este 0 1004 0.1 71
2020-03-31 11:00:00 10.3 22 Este 35 Nordeste 0 1004.2 0.5 72
2020-03-31 10:00:00 9.6 24 Nordeste 35 Nordeste 0 1004.3 0.7 73
2020-03-31 09:00:00 9.5 18 Nordeste 33 Nordeste 0 1003.9 0.5 73
2020-03-31 08:00:00 8.9 18 Nordeste 28 Nordeste 0 1003.7 -0.2 75
2020-03-31 07:00:00 8.5 13 Nordeste 30 Nordeste 0 1003.6 -0.8 76
2020-03-31 06:00:00 8.2 13 Nordeste 24 Norte 0 1003.4 -1.7 79
2020-03-31 05:00:00 8 13 Norte 21 Norte 0 1003.9 -1.3 78
2020-03-31 04:00:00 7.4 14 Norte 21 Nordeste 0 1004.4 -1.1 79
2020-03-31 03:00:00 7 14 Norte 21 Norte 0 1005.1 -0.9 76
2020-03-31 02:00:00 7.2 14 Nordeste 21 Norte 0 1005.2 -0.9 69
2020-03-31 01:00:00 6.7 9 Nordeste 13 Nordeste 0 1005.5 -0.9 81
2020-03-31 00:00:00 6.6 6 Nordeste -- -- 0 1006 -0.3 82
2020-03-30 23:00:00 6.6 4 Nordeste 8 Norte 0 1006.1 0.1 85
2020-03-30 22:00:00 6.6 5 Nordeste 8 Nordeste 0 1006.4 0.8 87
2020-03-30 21:00:00 6.6 2 Norte 8 Nordeste 0 1006.3 0.6 85
2020-03-30 20:00:00 6.6 4 Sur 8 Este 0 1006 -0.2 83
2020-03-30 19:00:00 7 6 Este 9 Este 0 1005.6 -0.5 79
2020-03-30 18:00:00 7.3 0 Calma 17 Oeste 0 1005.7 -0.4 80
2020-03-30 17:00:00 6.4 15 Oeste 33 Oeste 0.6 1006.2 0.2 81
2020-03-30 16:00:00 6.6 24 Oeste 42 Oeste 0.2 1006.1 0.1 76
2020-03-30 15:00:00 9 28 Oeste 37 Oeste 0 1006.1 -0.1 45
2020-03-30 14:00:00 10.7 17 Oeste 37 Oeste 0 1006 -0.3 40
2020-03-30 13:00:00 10.3 23 Oeste 39 Oeste 0 1006 0.2 46
2020-03-30 12:00:00 9.3 30 Oeste 42 Oeste 0 1006.2 0.9 51
2020-03-30 11:00:00 8.3 26 Oeste 42 Oeste 0 1006.3 1.7 58
2020-03-30 10:00:00 8.3 27 Oeste 41 Oeste 0 1005.8 1.7 60
2020-03-30 09:00:00 8 27 Oeste 39 Oeste 0 1005.3 1.4 61
2020-03-30 08:00:00 8.3 20 Noroeste 39 Noroeste 0 1004.6 0.4 67
2020-03-30 07:00:00 9.1 22 Oeste 46 Noroeste 0 1004.1 -0.3 62
2020-03-30 06:00:00 9.5 35 Oeste 46 Oeste 0 1003.9 -0.6 66
2020-03-30 05:00:00 10.2 28 Oeste 41 Oeste 0 1004.2 -0.3 65
2020-03-30 04:00:00 10.4 24 Oeste 41 Oeste 0 1004.4 -0.2 64
2020-03-30 03:00:00 10.5 28 Oeste 41 Oeste 0 1004.5 -0.3 62
2020-03-30 02:00:00 11.1 23 Oeste 35 Noroeste 0 1004.5 -0.3 59
2020-03-30 01:00:00 11.6 25 Oeste 37 Oeste 0 1004.6 0.1 61
2020-03-30 00:00:00 10.5 2 Norte 17 Noroeste 0 1004.8 0.7 78
2020-03-29 23:00:00 11.2 11 Noroeste 17 Noroeste 0 1004.8 1.2 77
2020-03-29 22:00:00 11.2 10 Oeste 13 Sudoeste 0 1004.5 0.9 82
2020-03-29 21:00:00 13 5 Noroeste 24 Sudoeste 0 1004.1 0.7 70
2020-03-29 20:00:00 14.9 20 Sudoeste 30 Sudoeste 0 1003.6 0.2 60
2020-03-29 19:00:00 16.2 21 Sur 35 Sur 0 1003.6 -0.3 61
2020-03-29 18:00:00 18.7 24 Sur 41 Sudoeste 0 1003.4 -1 51
2020-03-29 17:00:00 20.7 28 Sudoeste 42 Oeste 0 1003.4 -1.7 28
2020-03-29 16:00:00 20.4 26 Sudoeste 41 Oeste 0 1003.9 -2 30
2020-03-29 15:00:00 19.9 31 Oeste 41 Oeste 0 1004.4 -2 32
2020-03-29 14:00:00 19.3 25 Oeste 35 Sudoeste 0 1005.1 -1.5 34
2020-03-29 13:00:00 19 13 Oeste 21 Noroeste 0 1005.9 -1.1 36
2020-03-29 12:00:00 17.8 9 Nordeste 30 Sudoeste 0 1006.4 -0.5 39
2020-03-29 11:00:00 15.1 16 Oeste 30 Sudoeste 0 1006.6 -0.1 48
2020-03-29 10:00:00 12.6 21 Oeste 32 Oeste 0 1007 0.5 56
2020-03-29 09:00:00 9.4 3 Sudoeste 9 Oeste 0 1006.9 0.4 80
2020-03-29 08:00:00 7.7 6 Oeste 11 Norte 0 1006.7 -0.1 84
2020-03-29 07:00:00 7.5 4 Norte 11 Noroeste 0 1006.5 -0.7 81
2020-03-29 06:00:00 7.7 10 Norte 13 Norte 0 1006.5 -1.3 83
2020-03-29 05:00:00 8.1 5 Norte 13 Norte 0 1006.8 -1.4 84
2020-03-29 03:00:00 8.8 6 Norte 13 Nordeste 0 1007.8 -0.8 82
2020-03-29 01:00:00 8.7 7 Nordeste 9 Nordeste 0 1008.2 -0.6 82
2020-03-29 00:00:00 9 6 Noroeste 13 Norte 0 1008.4 -0.4 83
2020-03-28 23:00:00 9.4 11 Norte 11 Norte 0 1008.6 0.2 82
2020-03-28 22:00:00 10.1 8 Norte 9 Norte 0 1008.8 0.8 82
2020-03-28 21:00:00 11.3 -- -- -- -- 0 1008.8 1.2 77
2020-03-28 20:00:00 11.6 9 Sudoeste 13 Sudoeste 0 1008.4 1.1 74
2020-03-28 19:00:00 13.7 10 Sudoeste 17 Sur 0 1008 0.3 63
2020-03-28 18:00:00 15.7 12 Sudoeste 18 Sudoeste 0 1007.6 -0.4 52
2020-03-28 17:00:00 17 13 Sur 21 Sur 0 1007.3 -1.1 44
2020-03-28 16:00:00 17.5 14 Sur 22 Sudoeste 0 1007.7 -1 42
2020-03-28 15:00:00 17.7 14 Sur 24 Sur 0 1008 -1.1 41
2020-03-28 14:00:00 18.1 16 Sudeste 22 Sudeste 0 1008.4 -0.6 41
2020-03-28 13:00:00 17.2 9 Norte 22 Norte 0 1008.7 -0.4 39
2020-03-28 12:00:00 16.5 9 Nordeste 18 Nordeste 0 1009.1 0.6 40
2020-03-28 11:00:00 16.3 5 Oeste 18 Sudoeste 0 1009 1.1 45
2020-03-28 10:00:00 13.2 5 Norte 13 Nordeste 0 1009.1 1.6 58
2020-03-28 09:00:00 11.9 4 Norte 17 Nordeste 0 1008.5 1.4 64
2020-03-28 08:00:00 9.8 9 Nordeste 13 Nordeste 0 1007.9 0.8 77
2020-03-28 07:00:00 8.8 10 Nordeste 15 Nordeste 0 1007.5 0.4 81
2020-03-28 06:00:00 8.5 9 Norte 13 Norte 0 1007.1 -0.3 83
2020-03-28 05:00:00 8.3 6 Norte 11 Nordeste 0 1007.1 -0.6 84
2020-03-28 04:00:00 8.5 7 Norte -- -- 0 1007.1 -0.4 85
2020-03-28 03:00:00 8.9 8 Norte 15 Norte 0 1007.4 -0.4 82
2020-03-28 02:00:00 8.7 9 Norte 13 Norte 0 1007.7 -0.2 81
2020-03-28 01:00:00 8.7 6 Oeste 11 Oeste 0 1007.5 -0.3 80
2020-03-28 00:00:00 8.3 10 Noroeste 13 Noroeste 0 1007.8 0.6 85
2020-03-27 23:00:00 9.1 8 Norte 13 Norte 0 1007.9 1.6 79
2020-03-27 22:00:00 9.8 9 Norte 18 Nordeste 0 1007.8 2.3 70
2020-03-27 21:00:00 10 10 Este 15 Este 0 1007.2 2.4 70
2020-03-27 20:00:00 10.8 4 Sudeste 9 Sur 0 1006.3 2.1 66
2020-03-27 19:00:00 11.5 8 Sur 18 Sur 0 1005.5 1.4 63
2020-03-27 18:00:00 12.7 14 Sur 24 Sur 0 1004.8 0.4 52
2020-03-27 17:00:00 14.2 15 Sur 26 Sur 0 1004.2 -0.3 41
2020-03-27 16:00:00 15.9 21 Sur 30 Sur 0 1004.1 -0.5 44
2020-03-27 15:00:00 15.4 20 Sur 30 Sur 0 1004.4 -0.8 47
2020-03-27 14:00:00 15.7 15 Sudoeste 24 Sudoeste 0 1004.5 -0.8 45
2020-03-27 13:00:00 14.9 4 Sudoeste 21 Sur 0 1004.6 -0.8 43
2020-03-27 12:00:00 14.6 10 Sur 21 Sur 0 1005.2 0.1 48
2020-03-27 11:00:00 13.5 6 Este 15 Nordeste 0 1005.3 0.3 46
2020-03-27 10:00:00 11.1 10 Nordeste 15 Nordeste 0 1005.4 0.7 56
2020-03-27 09:00:00 8.6 6 Nordeste 13 Norte 0 1005.1 0.8 73
2020-03-27 08:00:00 4.3 9 Nordeste 11 Nordeste 0 1005 1 83
2020-03-27 07:00:00 1.4 7 Norte 13 Nordeste 0 1004.7 0.8 89
2020-03-27 06:00:00 1.3 9 Norte 15 Nordeste 0 1004.3 0.2 89
2020-03-27 05:00:00 1.7 9 Norte 15 Nordeste 0 1004 -0.4 90
2020-03-27 04:00:00 1.6 8 Nordeste 13 Nordeste 0 1003.9 -0.4 90
2020-03-27 03:00:00 1.8 10 Norte 13 Norte 0 1004.1 -0.2 91
2020-03-27 02:00:00 2.5 8 Norte 13 Norte 0 1004.4 0.3 91
2020-03-27 01:00:00 3.4 13 Norte 15 Norte 0 1004.3 0.4 92
2020-03-27 00:00:00 3.7 6 Nordeste 13 Este 0 1004.3 0.5 90
2020-03-26 23:00:00 4.8 7 Nordeste 13 Norte 0 1004.1 0.9 86
2020-03-26 22:00:00 5.9 11 Norte 22 Norte 0 1003.9 1.4 83
2020-03-26 21:00:00 6.9 11 Norte 24 Norte 0 1003.8 2.2 82
2020-03-26 20:00:00 7 15 Norte 22 Norte 0 1003.2 2.3 80
2020-03-26 19:00:00 7.4 8 Norte 18 Norte 1.5 1002.5 2.2 83
2020-03-26 18:00:00 8.3 13 Norte 22 Norte 0 1001.6 1.4 78
2020-03-26 17:00:00 8.4 10 Norte 17 Norte 0 1000.9 0.7 77
2020-03-26 16:00:00 8 11 Nordeste 33 Este 0.9 1000.3 1.1 83
2020-03-26 15:00:00 6.3 0 Calma 30 Sur 3.9 1000.2 1.2 85
2020-03-26 14:00:00 4.7 8 Sudeste 28 Sur 21.5 1000.2 1.3 87
2020-03-26 13:00:00 10.5 15 Sudoeste 28 Sudoeste 0 999.2 0.4 65
2020-03-26 12:00:00 12.1 16 Sudeste 24 Sudeste 0 999 0.4 57
2020-03-26 11:00:00 11.5 8 Sudoeste 17 Sur 0 998.9 0.3 62
2020-03-26 10:00:00 11.4 11 Sur 21 Sudeste 0 998.8 -0.1 62
2020-03-26 09:00:00 11.1 5 Sudeste 11 Sudeste 0 998.6 -0.8 62
2020-03-26 08:00:00 7.5 0 Calma 9 Este 0 998.6 -1.5 83
2020-03-26 07:00:00 6.5 0 Calma 9 Norte 0 998.9 -2 84
2020-03-26 06:00:00 7.1 7 Oeste 9 Oeste 0 999.4 -2.5 81
2020-03-26 05:00:00 7.3 4 Noroeste 11 Norte 0 1000.1 -2.6 79
2020-03-26 04:00:00 7.4 9 Norte 13 Norte 0 1000.9 -2.6 74
2020-03-26 03:00:00 7.4 9 Norte 13 Norte 0 1001.9 -2.4 76
2020-03-26 02:00:00 7.1 9 Norte 11 Norte 0 1002.7 -2.5 79
2020-03-26 01:00:00 7.2 4 Oeste -- -- 0 1003.5 -2.2 74
2020-03-26 00:00:00 -- 8 Oeste 9 Oeste 0 1004.3 -1.5 --
2020-03-25 23:00:00 7.8 5 Oeste 11 Oeste 0 1005.2 -0.9 73
2020-03-25 22:00:00 8.1 9 Oeste 15 Oeste 0 1005.7 -0.7 70
2020-03-25 21:00:00 8.2 10 Oeste 13 Oeste 0 1005.8 -0.7 68
2020-03-25 20:00:00 8.2 7 Sudoeste 9 Oeste 0 1006.1 -0.7 71
2020-03-25 19:00:00 8.7 8 Sudoeste 11 Sudoeste 0 1006.4 -0.7 63
2020-03-25 18:00:00 9.5 9 Sur 13 Sur 0 1006.5 -1.5 58
2020-03-25 17:00:00 10.4 6 Sur 13 Sur 0 1006.8 -1.7 52
2020-03-25 16:00:00 10.8 4 Sudoeste 11 Oeste 0 1007.1 -2.2 49
2020-03-25 15:00:00 9.1 7 Oeste 13 Noroeste 0 1008 -1.6 58
2020-03-25 14:00:00 9.3 8 Noroeste 17 Noroeste 0 1008.5 -1.2 59
2020-03-25 13:00:00 9.3 11 Norte 24 Nordeste 0 1009.3 -0.1 58
2020-03-25 12:00:00 8.4 16 Nordeste 26 Norte 0 1009.6 0.2 62
2020-03-25 11:00:00 7.9 18 Nordeste 41 Nordeste 0 1009.7 0.3 62
2020-03-25 10:00:00 9.5 22 Nordeste 30 Este 0 1009.4 0.6 53
2020-03-25 09:00:00 8.8 9 Nordeste 21 Norte 0 1009.4 0.4 58
2020-03-25 08:00:00 7.4 11 Norte 18 Norte 0 1009.4 0.1 64
2020-03-25 07:00:00 6.9 13 Norte 18 Norte 0 1008.8 -0.5 72
2020-03-25 06:00:00 7.1 13 Nordeste 24 Norte 0 1009 -0.5 71
2020-03-25 05:00:00 6.9 14 Norte 22 Norte 0.3 1009.3 -0.8 80
2020-03-25 04:00:00 8.1 12 Norte 21 Norte 0 1009.3 -0.8 69
2020-03-25 03:00:00 8.4 13 Norte 21 Norte 0 1009.5 -0.9 68
2020-03-25 02:00:00 8.7 12 Nordeste 22 Nordeste 0 1010.1 -0.5 67
2020-03-25 01:00:00 9.1 12 Nordeste 21 Nordeste 0 1010.1 -0.4 66
2020-03-25 00:00:00 9.4 17 Nordeste 26 Nordeste 0 1010.4 -0.1 65
2020-03-24 23:00:00 9.8 15 Nordeste 22 Nordeste 0 1010.6 0.4 67
2020-03-24 22:00:00 10 13 Este 22 Nordeste 0 1010.5 0.7 69
2020-03-24 21:00:00 10.2 12 Nordeste 26 Este 0 1010.5 1 69
2020-03-24 20:00:00 10.6 14 Este 35 Nordeste 0 1010.2 1.1 70
2020-03-24 19:00:00 10.5 15 Este 32 Este 0 1009.8 0.2 74
2020-03-24 18:00:00 11.3 16 Este 28 Este 0 1009.5 -0.6 70
2020-03-24 17:00:00 11.7 21 Este 45 Este 0 1009.1 -1.5 69
2020-03-24 16:00:00 12.4 23 Este 37 Este 0 1009.6 -1.3 62
2020-03-24 15:00:00 12.7 24 Este 35 Este 0 1010.1 -1.1 58
2020-03-24 14:00:00 12.6 19 Este 35 Este 0 1010.6 -0.7 56
2020-03-24 13:00:00 13.3 23 Sudeste 37 Sudeste 0 1010.9 -0.7 63
2020-03-24 12:00:00 13.8 11 Este 22 Este 0 1011.2 -0.3 56
2020-03-24 11:00:00 13.3 13 Este 30 Este 0 1011.3 0 60
2020-03-24 10:00:00 13.8 21 Este 39 Este 0 1011.6 0.2 58
2020-03-24 09:00:00 12.5 21 Este 33 Este 0 1011.5 0.6 63
2020-03-24 08:00:00 11 17 Nordeste 26 Nordeste 0 1011.3 0.3 71
2020-03-24 07:00:00 10 21 Nordeste 33 Nordeste 0 1011.4 0.5 77
2020-03-24 06:00:00 11.1 16 Nordeste 30 Nordeste 0 1010.9 0 74
2020-03-24 05:00:00 11.2 15 Nordeste 30 Norte 0 1011 -0.3 73
2020-03-24 04:00:00 11.3 17 Norte 26 Norte 0 1010.9 -0.4 75
2020-03-24 03:00:00 11.5 17 Nordeste 28 Norte 0 1010.9 -0.5 75
2020-03-24 02:00:00 11.8 24 Nordeste 41 Nordeste 0 1011.3 -0.1 78
2020-03-24 01:00:00 12.1 22 Nordeste 30 Nordeste 0 1011.3 0.3 79
2020-03-24 00:00:00 12.3 18 Nordeste 28 Este 0 1011.4 0.8 80
2020-03-23 23:00:00 12.2 14 Nordeste 24 Este 0 1011.4 1.1 79
2020-03-23 22:00:00 12 10 Nordeste 22 Nordeste 0 1011 1.4 80
2020-03-23 21:00:00 11.6 11 Nordeste 21 Nordeste 0 1010.6 1 86
2020-03-23 20:00:00 12 10 Nordeste 21 Este 0 1010.3 1.2 85
2020-03-23 19:00:00 13 17 Este 32 Este 0 1009.6 0.4 80
2020-03-23 18:00:00 14.2 21 Este 33 Este 0 1009.6 0.3 76
2020-03-23 17:00:00 15 23 Este 33 Este 0 1009.1 -0.6 69
2020-03-23 16:00:00 15.6 23 Este 37 Este 0 1009.2 -0.3 70
2020-03-23 15:00:00 16.5 26 Este 41 Este 0 1009.3 -0.5 67
2020-03-23 14:00:00 16.1 29 Este 45 Este 0 1009.7 0.1 67
2020-03-23 13:00:00 17.4 27 Este 37 Este 0 1009.5 -0.1 65
2020-03-23 12:00:00 16.8 21 Este 32 Este 0 1009.8 0.8 65
2020-03-23 11:00:00 16.4 21 Este 39 Este 0 1009.6 1.2 68
2020-03-23 10:00:00 14.6 22 Este 35 Este 0 1009.6 1.9 74
2020-03-23 09:00:00 13.2 22 Nordeste 33 Nordeste 0 1009 1.7 80
2020-03-23 08:00:00 11.9 14 Nordeste 26 Nordeste 0 1008.4 1.4 86
2020-03-23 07:00:00 11.7 14 Norte 22 Norte 0 1007.7 0.7 83
2020-03-23 06:00:00 11.2 10 Nordeste 17 Nordeste 0 1007.3 0.3 86
2020-03-23 05:00:00 11.4 11 Norte 18 Nordeste 0 1007 -0.1 85
2020-03-23 04:00:00 11.9 13 Nordeste 21 Nordeste 0 1007 -0.1 84
2020-03-23 03:00:00 11.8 12 Nordeste 21 Nordeste 0 1007 -0.4 86
2020-03-23 02:00:00 11.6 9 Nordeste 13 Norte 0 1007.1 -0.3 87
2020-03-23 01:00:00 11.8 13 Nordeste 22 Nordeste 0 1007.1 0 86
2020-03-23 00:00:00 11.7 13 Nordeste 21 Nordeste 0 1007.4 0.6 87
2020-03-22 23:00:00 11.1 9 Norte 13 Norte 1.6 1007.4 1.4 92
2020-03-22 22:00:00 11.2 10 Norte 15 Norte 1 1007.1 2 91
2020-03-22 21:00:00 11.1 12 Nordeste 21 Este 0.4 1006.8 2.1 90
2020-03-22 20:00:00 11.5 13 Este 30 Este 1.3 1006 1.6 91
2020-03-22 19:00:00 13.5 14 Este 22 Este 0 1005.1 0.8 83
2020-03-22 18:00:00 13.8 14 Este 22 Este 0 1004.7 0.3 82
2020-03-22 17:00:00 14.2 15 Este 22 Este 0 1004.4 -0.3 78
2020-03-22 16:00:00 14.8 13 Este 22 Sudeste 0 1004.3 -0.6 74
2020-03-22 15:00:00 14.4 14 Este 26 Sudeste 0 1004.4 -0.4 73
2020-03-22 14:00:00 14.3 17 Este 26 Este 0 1004.7 0.2 78
2020-03-22 13:00:00 14.9 19 Sudeste 30 Este 0 1004.9 0.7 72
2020-03-22 12:00:00 15.8 21 Este 32 Sudeste 0 1004.8 0.9 66
2020-03-22 11:00:00 15.6 12 Este 22 Este 0 1004.5 1.1 64
2020-03-22 10:00:00 15 15 Nordeste 26 Este 0 1004.2 1.2 68
2020-03-22 09:00:00 12.3 9 Nordeste 13 Norte 0 1003.9 0.9 74
2020-03-22 08:00:00 8.9 8 Nordeste 18 Norte 0 1003.4 0.6 85
2020-03-22 07:00:00 6.5 13 Norte 15 Norte 0 1003 0.1 92
2020-03-22 06:00:00 6 9 Nordeste 13 Nordeste 0 1003 -0.2 92
2020-03-22 05:00:00 6.1 7 Norte -- -- 0 1002.8 -1 92
2020-03-22 04:00:00 6.5 8 Nordeste 13 Norte 0 1002.9 -1.2 90
2020-03-22 03:00:00 6.6 6 Nordeste 11 Nordeste 0 1003.2 -1.3 90
2020-03-22 02:00:00 7.7 6 Nordeste 15 Norte 0 1003.8 -0.6 86
2020-03-22 01:00:00 8.9 12 Norte 15 Norte 0 1004.1 -0.4 85
2020-03-22 00:00:00 7.9 13 Norte 15 Norte 0 1004.5 0 84
2020-03-21 23:00:00 7.7 11 Norte 15 Nordeste 0 1004.4 0.4 89
2020-03-21 22:00:00 8.7 11 Norte -- -- 0 1004.5 0.7 84
2020-03-21 21:00:00 9.7 10 Norte -- -- 0 1004.5 1.1 87
2020-03-21 20:00:00 11.6 5 Noroeste -- -- 0 1004 0.6 81
2020-03-21 19:00:00 12.5 5 Sur 13 Sur 0 1003.8 0.2 78
2020-03-21 18:00:00 14.2 9 Sudeste 21 Sudeste 0 1003.4 -0.7 66
2020-03-21 17:00:00 15.3 14 Sudeste 21 Sudeste 0 1003.4 -1.1 64
2020-03-21 16:00:00 16.6 12 Sudeste 21 Sudeste 0 1003.6 -1.5 54
2020-03-21 15:00:00 16.6 13 Sudeste 26 Sudeste 0 1004.1 -1.5 54
2020-03-21 14:00:00 16.9 15 Sudeste 28 Sudeste 0 1004.5 -1.4 49
2020-03-21 13:00:00 17.6 16 Sudeste 26 Sur 0 1005.1 -1.2 46
2020-03-21 12:00:00 15.3 5 Sudeste 17 Este 0 1005.6 -0.8 52
2020-03-21 11:00:00 15.5 10 Este 24 Nordeste 0 1005.9 -- 55
2020-03-21 10:00:00 14.1 11 Nordeste 22 Nordeste 0 1006.3 0 59
2020-03-21 09:00:00 11.7 12 Nordeste -- -- -- 1006.4 -0.2 60
2020-03-21 08:00:00 -- -- -- -- -- -- -- -- --
2020-03-21 07:00:00 4.4 8 Norte 15 Norte 0 1006.3 -0.7 84
2020-03-21 06:00:00 4.6 9 Nordeste 13 Nordeste 0 1006.6 -0.9 85
2020-03-21 05:00:00 4.7 9 Nordeste 15 Norte 0 1006.7 -1.4 85
2020-03-21 04:00:00 5.5 7 Norte 9 Norte 0 1007 -1.4 84
2020-03-21 03:00:00 5.5 6 Nordeste 13 Norte 0 1007.5 -1.4 83
2020-03-21 02:00:00 5.5 6 Norte 11 Norte 0 1008.1 -1.2 87
2020-03-21 01:00:00 6.5 10 Norte 13 Norte 0 1008.4 -0.9 86
2020-03-21 00:00:00 7.7 8 Nordeste 15 Norte 0 1008.9 -0.7 85
2020-03-20 23:00:00 9 11 Norte 15 Norte 0 1009.3 -0.3 85
2020-03-20 22:00:00 9.7 10 Norte 15 Norte 0 1009.3 -0.4 87
2020-03-20 21:00:00 -- 9 Norte 11 Norte 0 1009.6 0 --
2020-03-20 20:00:00 10.6 6 Nordeste 15 Este 0 1009.6 0 87
2020-03-20 19:00:00 12.3 10 Este 21 Este 0 1009.7 -0.1 81
2020-03-20 18:00:00 13.6 15 Este 24 Este 0 1009.6 -0.6 75
2020-03-20 17:00:00 15.4 15 Sudeste 28 Sudeste 0 1009.6 -1 66
2020-03-20 16:00:00 15.4 16 Sudeste 26 Sudeste 0 1009.8 -1.3 63
2020-03-20 15:00:00 16.2 18 Sudeste 26 Sudeste 0 1010.2 -1.4 61
2020-03-20 14:00:00 16.1 18 Sudeste 28 Sudeste 0 1010.6 -0.9 65
2020-03-20 13:00:00 16.4 20 Sudeste 30 Sudeste 0 1011.1 -0.7 58
2020-03-20 12:00:00 16.3 18 Sudeste 26 Sudeste 0 1011.6 0 57
2020-03-20 11:00:00 15.7 9 Nordeste 18 Nordeste 0 1011.5 0.3 57
2020-03-20 10:00:00 14.1 12 Este 18 Este 0 1011.8 0.9 67
2020-03-20 09:00:00 12.2 13 Nordeste 21 Norte 0 1011.6 0.8 72
2020-03-20 08:00:00 9.9 14 Norte 21 Norte 0 1011.2 0.1 78
2020-03-20 07:00:00 8.6 13 Norte 21 Norte 0 1010.9 -0.3 83
2020-03-20 06:00:00 9.5 15 Norte 21 Norte 0 1010.8 -0.9 82
2020-03-20 05:00:00 9.8 14 Norte 21 Norte 0 1011.1 -0.9 82
2020-03-20 04:00:00 9.1 14 Norte 21 Norte 0 1011.2 -1.2 85
2020-03-20 03:00:00 8.8 14 Norte 18 Norte 0 1011.7 -1.1 88
2020-03-20 02:00:00 8.3 13 Norte 17 Norte 0 1012 -1 89
2020-03-20 01:00:00 8.4 8 Norte 13 Norte 0 1012.4 -0.7 91
2020-03-20 00:00:00 8.4 10 Norte 13 Norte 0 1012.8 -0.2 90
2020-03-19 23:00:00 8.7 9 Norte 13 Norte 0 1013 0.1 90
2020-03-19 22:00:00 9.3 8 Norte 13 Nordeste 0 1013.1 0.6 89
2020-03-19 21:00:00 10 11 Nordeste 17 Nordeste 0 1013 0.5 88
2020-03-19 20:00:00 9.9 9 Este 13 Este 0 1012.9 0.1 86
2020-03-19 19:00:00 12.1 10 Este 15 Este 0 1012.5 -0.7 78
2020-03-19 18:00:00 14.6 10 Sudeste 18 Sudeste 0 1012.5 -1.2 65
2020-03-19 17:00:00 15.4 13 Sudeste 21 Sudeste 0 1012.8 -1.6 58
2020-03-19 16:00:00 15.8 11 Sudeste 21 Sudeste 0 1013.2 -1.8 60
2020-03-19 15:00:00 16.2 7 Sudeste 21 Sudeste 0 1013.7 -1.7 61
2020-03-19 14:00:00 14.8 8 Sudeste 17 Sur 0 1014.4 -1.4 66
2020-03-19 13:00:00 15 12 Sudeste 18 Sudeste 0 1015 -0.8 66
2020-03-19 12:00:00 15.6 9 Sudeste 22 Sudeste 0 1015.4 0.1 64
2020-03-19 11:00:00 15 5 Sudeste 13 Este 0 1015.8 0.9 67
2020-03-19 10:00:00 13 4 Sur 13 Este 0 1015.8 1.1 78
2020-03-19 09:00:00 10.8 3 Norte 15 Norte 0 1015.3 0.6 82
2020-03-19 08:00:00 8.3 10 Norte 18 Nordeste 0 1014.9 0.1 87
2020-03-19 07:00:00 7 12 Norte 15 Nordeste 0 1014.7 -0.3 90
2020-03-19 06:00:00 6.3 10 Norte 13 Norte 0 1014.7 -0.9 91
2020-03-19 05:00:00 6.8 6 Nordeste 8 Nordeste 0 1014.8 -1.3 88
2020-03-19 04:00:00 7.1 5 Norte 11 Norte 0 1015 -1.4 89
2020-03-19 03:00:00 7.2 6 Norte 11 Norte 0 1015.6 -1.1 89
2020-03-19 02:00:00 7.7 10 Norte 15 Norte 0 1016.1 -0.8 88
2020-03-19 01:00:00 7.7 10 Norte -- -- 0 1016.4 -0.6 90
2020-03-19 00:00:00 8.1 8 Norte 9 Norte 0 1016.7 -0.2 90
2020-03-18 23:00:00 8.7 5 Norte -- -- 0 1016.9 0.1 90
2020-03-18 22:00:00 9.3 5 Norte -- -- 0 1017 0.4 88
2020-03-18 21:00:00 10.2 5 Noroeste 8 Norte 0 1016.9 0.5 88
2020-03-18 20:00:00 11.6 0 Calma 8 Sudeste 0 1016.8 0.2 83
2020-03-18 19:00:00 12.6 5 Sudeste 11 Sur 0 1016.6 -0.5 80
2020-03-18 18:00:00 14.3 8 Sur 13 Sudeste 0 1016.4 -1 73
2020-03-18 17:00:00 15.5 3 Sudeste 15 Sudeste 0 1016.6 -1.3 61
2020-03-18 16:00:00 16.1 10 Sudeste 17 Sudeste 0 1017.1 -1.5 58
2020-03-18 15:00:00 16.8 9 Sudeste 22 Sudeste 0 1017.4 -1.6 59
2020-03-18 14:00:00 16.7 11 Sur 18 Sudeste 0 1017.9 -1.6 61
2020-03-18 13:00:00 16.4 13 Sudeste 18 Sudeste 0 1018.6 -0.9 60
2020-03-18 12:00:00 16.8 7 Sudeste 13 Sudeste 0 1019 -0.2 59
2020-03-18 11:00:00 14.6 0 Calma 8 Sudoeste 0 1019.5 0.4 73
2020-03-18 10:00:00 12.5 4 Nordeste 9 Norte 0 1019.5 0.6 82
2020-03-18 09:00:00 10.8 6 Norte -- -- 0 1019.2 0.2 92
2020-03-18 08:00:00 9 5 Nordeste 9 Oeste 0 1019.1 0.3 93
2020-03-18 07:00:00 9.4 8 Oeste 13 Oeste 0 1018.9 0 92
2020-03-18 06:00:00 8.5 7 Noroeste 8 Oeste 0 1019 -0.1 90
2020-03-18 05:00:00 9.2 7 Norte -- -- 0 1018.8 -0.9 87
2020-03-18 04:00:00 9.7 8 Nordeste 13 Nordeste 0 1018.9 -1 85
2020-03-18 03:00:00 10.4 3 Noroeste -- -- 0 1019.1 -1.1 88
2020-03-18 02:00:00 10.9 6 Este 11 Sudeste 0 1019.7 -0.7 85
2020-03-18 01:00:00 11 9 Nordeste -- -- 0 1019.9 -0.5 85
2020-03-18 00:00:00 11.2 9 Nordeste 11 Nordeste 0 1020.2 0.1 85
2020-03-17 23:00:00 11.6 6 Nordeste 13 Norte 0 1020.4 1 82
2020-03-17 22:00:00 12.4 12 Norte 15 Norte 0 1020.4 1.3 79
2020-03-17 21:00:00 12.6 8 Nordeste 13 Norte 0 1020.1 1.3 81
2020-03-17 20:00:00 13.1 7 Norte 9 Norte 0 1019.4 0.9 81
2020-03-17 19:00:00 14.4 6 Nordeste 21 Este 0 1019.1 0.8 76
2020-03-17 18:00:00 15.7 14 Este 22 Este 0 1018.8 0.6 68
2020-03-17 17:00:00 16 17 Este 26 Este 0 1018.5 0 67
2020-03-17 16:00:00 17.4 19 Nordeste 30 Nordeste 0 1018.3 -0.7 61
2020-03-17 15:00:00 18.5 15 Este 30 Este 0 1018.2 -0.8 62
2020-03-17 14:00:00 17.3 19 Este 33 Este 0 1018.5 0 66
2020-03-17 13:00:00 15.6 19 Este 33 Este 0 1019 1.1 72
2020-03-17 12:00:00 15 13 Este 30 Este 0 1019 2.3 75
2020-03-17 11:00:00 14.8 22 Nordeste 32 Este 0 1018.5 2.7 76
2020-03-17 10:00:00 14 17 Este 28 Nordeste 0 1017.9 2.2 81
2020-03-17 09:00:00 13.1 16 Nordeste 41 Nordeste 0 1016.7 1.8 85
2020-03-17 08:00:00 12.7 24 Nordeste 32 Nordeste 0.5 1015.8 1.2 86
2020-03-17 07:00:00 12.8 20 Nordeste 37 Nordeste 0 1015.7 2.3 84
2020-03-17 06:00:00 12.5 24 Nordeste 35 Nordeste 0.5 1014.9 1.2 84
2020-03-17 05:00:00 13 27 Nordeste 42 Nordeste 0 1014.6 1 78
2020-03-17 04:00:00 12.9 23 Nordeste 45 Nordeste 0 1013.4 -0.1 79
2020-03-17 03:00:00 12.7 23 Nordeste 39 Nordeste 0 1013.7 0.6 81
2020-03-17 02:00:00 12.4 26 Nordeste 42 Nordeste 0 1013.6 1 86
2020-03-17 01:00:00 12.1 29 Nordeste 37 Nordeste 0.5 1013.5 1.7 92
2020-03-17 00:00:00 12.5 21 Nordeste 37 Nordeste 0 1013.1 2.3 92
2020-03-16 23:00:00 12.2 21 Nordeste 41 Nordeste 0 1012.6 3 93
2020-03-16 22:00:00 12.4 27 Nordeste 41 Nordeste 0 1011.8 3.1 92
2020-03-16 21:00:00 12.4 21 Nordeste 41 Nordeste 0 1010.8 3.4 96
2020-03-16 20:00:00 12 26 Nordeste 58 Nordeste 1.7 1009.6 2.6 97
2020-03-16 19:00:00 12.3 27 Nordeste 48 Nordeste 0.5 1008.7 1.9 93
2020-03-16 18:00:00 12.7 35 Nordeste 48 Nordeste 1.6 1007.4 1.1 95
2020-03-16 17:00:00 13.1 29 Nordeste 50 Este 1.3 1007 1.2 95
2020-03-16 16:00:00 13.2 24 Este 48 Este 0.5 1006.8 1.1 95
2020-03-16 15:00:00 13 30 Este 50 Este 0.9 1006.3 0.2 96
2020-03-16 14:00:00 13.1 33 Este 52 Este 0.7 1005.8 -0.1 95
2020-03-16 13:00:00 12.8 30 Nordeste 46 Este 0.9 1005.7 -0.5 96
2020-03-16 12:00:00 11.1 18 Nordeste 30 Norte 5.2 1006.1 0.1 96
2020-03-16 11:00:00 11.3 21 Norte 28 Norte 2.5 1005.9 0.8 92
2020-03-16 10:00:00 11.7 15 Nordeste 32 Nordeste 1 1006.2 1.4 87
2020-03-16 09:00:00 11.8 15 Nordeste 32 Nordeste 0 1006 1.5 83
2020-03-16 08:00:00 11.6 16 Nordeste 32 Nordeste 0.2 1005.1 0.7 85
2020-03-16 07:00:00 12.4 16 Este 32 Este 0 1004.8 0 80
2020-03-16 06:00:00 12.5 16 Este 26 Este 0 1004.5 -1.2 84
2020-03-16 05:00:00 12.7 13 Este 22 Este 0 1004.4 -1.9 88
2020-03-16 04:00:00 12.7 12 Este 18 Este 0 1004.8 -1.9 91
2020-03-16 03:00:00 12 8 Este 13 Nordeste 0 1005.7 -1.6 91
2020-03-16 02:00:00 -- 8 Nordeste 11 Nordeste 0 1006.3 -1.4 --
2020-03-16 01:00:00 12.3 3 Este 11 Este 0 1006.7 -0.8 87
2020-03-16 00:00:00 12.6 8 Este 17 Este 0 1007.3 0.2 85
2020-03-15 23:00:00 12.7 11 Este 22 Este 0 1007.7 0.8 86
2020-03-15 22:00:00 12.6 13 Sudeste 26 Este 0 1007.5 0.7 89
2020-03-15 21:00:00 13 11 Sudeste 21 Sudeste 0 1007.1 0.3 84
2020-03-15 20:00:00 13 12 Sudeste 18 Sudeste 0 1006.9 -0.1 85
2020-03-15 19:00:00 13.2 12 Sudeste 22 Sudeste 0 1006.8 -0.7 84
2020-03-15 18:00:00 13.7 15 Sudeste -- -- -- 1006.8 -1 81
2020-03-15 17:00:00 15.5 16 Sudeste 28 Sudeste 0 1007 -1.8 73
2020-03-15 16:00:00 15.6 15 Sur 26 Sur 0 1007.5 -2.1 72
2020-03-15 15:00:00 15.8 16 Sudeste 28 Sudeste 0 1007.8 -2.4 71
2020-03-15 14:00:00 16.9 15 Sur 24 Sur 0 1008.8 -1.6 66
2020-03-15 13:00:00 14.5 16 Sur 22 Sur 0 1009.6 -1.1 77
2020-03-15 12:00:00 14.3 13 Sudeste 21 Sudeste 0 1010.2 -0.4 78
2020-03-15 11:00:00 14.6 5 Sudeste 13 Sur 0 1010.4 0.2 75
2020-03-15 10:00:00 13.3 5 Nordeste 11 Nordeste 0 1010.7 0.6 77
2020-03-15 09:00:00 11.7 9 Nordeste 17 Norte 0 1010.6 0.6 78
2020-03-15 08:00:00 9.9 14 Norte 18 Norte 0 1010.2 0 84
2020-03-15 07:00:00 9.1 13 Norte 17 Norte 0 1010.1 -0.6 87
2020-03-15 06:00:00 9.1 13 Norte 17 Norte 0 1010 -1 87
2020-03-15 05:00:00 9.6 12 Norte 18 Norte 0 1010.2 -1.4 83
2020-03-15 04:00:00 9.7 8 Norte 13 Norte 0 1010.7 -1 83
2020-03-15 03:00:00 10.2 8 Nordeste 15 Norte 0 1011 -0.7 82
2020-03-15 02:00:00 9.9 11 Norte 13 Norte 0 1011.6 -0.2 83
2020-03-15 01:00:00 8.4 7 Norte -- -- 0 1011.7 0.1 85
2020-03-15 00:00:00 8.4 8 Norte 13 Norte 0 1011.7 0.3 83
2020-03-14 23:00:00 9.2 11 Norte 22 Norte 0 1011.8 0.7 81
2020-03-14 22:00:00 9.2 10 Norte 15 Nordeste 0 1011.6 0.7 82
2020-03-14 21:00:00 10.7 4 Norte 8 Norte 0 1011.4 0.9 78
2020-03-14 20:00:00 12.2 0 Calma 8 Sudoeste 0 1011.1 1.1 76
2020-03-14 19:00:00 13.6 6 Sudoeste 21 Sur 0 1010.9 1.3 68
2020-03-14 18:00:00 15.8 14 Sudoeste 28 Sur 0 1010.5 0.9 59
2020-03-14 17:00:00 16.9 21 Sur 33 Sur 0 1010 0 58
2020-03-14 16:00:00 17.6 24 Sur 39 Sur 0 1009.6 -1.2 51
2020-03-14 15:00:00 21.2 20 Sudoeste 33 Sudoeste 0 1009.6 -1.7 32
2020-03-14 14:00:00 20.9 20 Sur 28 Sur 0 1010 -1.6 38
2020-03-14 13:00:00 20.1 16 Sudoeste 24 Sur 0 1010.8 -0.9 41
2020-03-14 12:00:00 18.5 16 Oeste 30 Oeste 0 1011.3 0.2 44
2020-03-14 11:00:00 17.8 17 Oeste 24 Oeste 0 1011.6 1 46
2020-03-14 10:00:00 15.8 7 Nordeste 26 Noroeste 0 1011.7 1.3 54
2020-03-14 09:00:00 13.1 12 Oeste 26 Oeste 0 1011.1 1.3 59
2020-03-14 08:00:00 11.1 11 Oeste 18 Oeste 0 1010.6 0.9 70
2020-03-14 07:00:00 10.2 11 Oeste 21 Oeste 0 1010.4 0.8 75
2020-03-14 06:00:00 11.1 5 Sudeste 17 Norte 0 1009.8 -0.3 73
2020-03-14 05:00:00 10.4 9 Noroeste 13 Noroeste 0 1009.7 -0.6 85
2020-03-14 04:00:00 9.4 9 Noroeste 11 Noroeste 0 1009.6 -0.7 90
2020-03-14 03:00:00 9.7 4 Noroeste 11 Norte 0 1010.1 -0.4 90
2020-03-14 02:00:00 10.2 8 Norte 11 Norte 0 1010.3 -0.2 88
2020-03-14 01:00:00 11.1 9 Norte 11 Norte 0 1010.3 0.1 86
2020-03-14 00:00:00 11.7 4 Norte 8 Norte 0 1010.5 0.5 84
2020-03-13 23:00:00 11.8 0 Calma 9 Noroeste 0 1010.5 0.9 82
2020-03-13 22:00:00 12.5 5 Oeste 9 Oeste 0 1010.2 0.9 83
2020-03-13 21:00:00 12.4 5 Sudoeste 17 Sudoeste 0 1010 0.8 84
2020-03-13 20:00:00 12.7 8 Sudoeste 13 Sudoeste 0 1009.6 0 83
2020-03-13 19:00:00 13.8 9 Sudoeste 18 Sudoeste 0 1009.3 -0.6 80
2020-03-13 18:00:00 15.6 14 Sudoeste 22 Sudoeste 0 1009.2 -1 73
2020-03-13 17:00:00 16.3 17 Sudoeste 28 Sudoeste 0 1009.6 -1.3 70
2020-03-13 16:00:00 17.6 19 Sudoeste 32 Sur 0 1009.9 -1.5 65
2020-03-13 15:00:00 18.1 17 Sudoeste 28 Sudoeste 0 1010.2 -1.5 61
2020-03-13 14:00:00 18.5 15 Sudoeste 22 Sur 0 1010.9 -1 58
2020-03-13 13:00:00 18 14 Sudoeste 22 Sudoeste 0 1011.4 -0.6 58
2020-03-13 12:00:00 18.2 14 Sur 28 Sudeste 0 1011.7 0 58
2020-03-13 11:00:00 18.4 9 Sudoeste 22 Sudoeste 0 1011.9 0.9 54
2020-03-13 10:00:00 15.7 0 Calma 9 Sudeste 0 1012 1.3 65
2020-03-13 09:00:00 11.4 0 Calma 8 Noroeste 0 1011.7 1.5 85
2020-03-13 08:00:00 8.9 6 Norte 9 Norte 0 1011 0.8 91
2020-03-13 07:00:00 8.6 4 Nordeste 9 Norte 0 1010.7 0.5 91
2020-03-13 06:00:00 8.6 6 Norte 9 Norte 0 1010.2 -0.1 93
2020-03-13 05:00:00 9.1 5 Norte 13 Norte 0 1010.2 -0.5 96
2020-03-13 04:00:00 10.8 4 Noroeste 9 Noroeste 0 1010.2 -0.6 97
2020-03-13 03:00:00 11 5 Oeste 11 Noroeste 0 1010.3 -0.3 98
2020-03-13 02:00:00 11.2 5 Noroeste 9 Noroeste 0 1010.7 0.1 98
2020-03-13 01:00:00 10.6 4 Norte 11 Este 0 1010.8 0.6 97
2020-03-13 00:00:00 10.2 8 Nordeste 11 Nordeste 0 1010.6 0.7 96
2020-03-12 23:00:00 11.5 8 Nordeste 13 Este 0 1010.6 1.3 96
2020-03-12 22:00:00 11.7 9 Nordeste 11 Nordeste 0 1010.2 1.1 95
2020-03-12 21:00:00 11.6 0 Calma -- -- 0 1009.9 1 92
2020-03-12 20:00:00 12 0 Calma 5 Sur 0 1009.3 0.3 90
2020-03-12 19:00:00 13.5 6 Sur 11 Sur 0 1009.1 -0.5 84
2020-03-12 18:00:00 16.3 6 Este 9 Sudeste 0 1008.9 -1.1 73
2020-03-12 17:00:00 16.8 8 Sudeste 15 Sur 0 1009 -1.6 71
2020-03-12 16:00:00 16.8 10 Sudeste 18 Sur 0 1009.6 -1.8 72
2020-03-12 15:00:00 16.8 13 Sur 21 Sudeste 0 1010 -2.1 71
2020-03-12 14:00:00 18.9 12 Sudeste 18 Sur 0 1010.6 -2 63
2020-03-12 13:00:00 21 5 Este 13 Sudeste 0 1011.4 -0.9 45
2020-03-12 12:00:00 18.4 4 Sudeste 11 Sudeste 0 1012.1 0 56
2020-03-12 11:00:00 16.8 8 Sudeste 13 Sudeste 0 1012.6 0.7 63
2020-03-12 10:00:00 16.2 5 Sur 13 Sudoeste 0 1012.3 0.5 63
2020-03-12 09:00:00 12.6 6 Nordeste 13 Nordeste 0 1012.1 0.6 68
2020-03-12 08:00:00 8.2 6 Norte 9 Norte 0 1011.9 0.4 84
2020-03-12 07:00:00 7 6 Norte 11 Norte 0 1011.8 0 85
2020-03-12 06:00:00 7.3 9 Norte -- -- 0 1011.5 -0.6 86
2020-03-12 05:00:00 7.8 6 Nordeste 9 Nordeste 0 1011.5 -1.1 87
2020-03-12 04:00:00 8.5 6 Sur 13 Nordeste 0 1011.8 -1.2 84
2020-03-12 03:00:00 9.5 8 Nordeste 18 Norte 0 1012.1 -1.5 82
2020-03-12 02:00:00 11.3 16 Norte 21 Norte 0 1012.6 -1.1 79
2020-03-12 01:00:00 10.8 14 Norte 18 Norte 0 1013 -0.8 83
2020-03-12 00:00:00 9.1 8 Norte -- -- 0 1013.6 0.1 87
2020-03-11 23:00:00 9.4 8 Norte 9 Nordeste 0 1013.7 0.2 86
2020-03-11 22:00:00 9.9 5 Norte 8 Norte 0 1013.8 0.5 84
2020-03-11 21:00:00 10.6 3 Este 9 Norte 0 1013.5 0.5 84
2020-03-11 20:00:00 11.9 0 Calma 9 Sudoeste 0 1013.5 0.6 85
2020-03-11 19:00:00 13.6 8 Sudoeste 13 Sur 0 1013.3 0.2 77
2020-03-11 18:00:00 16 12 Sur 17 Sur 0 1013 -0.2 67
2020-03-11 17:00:00 17.4 10 Sur 21 Sudeste 0 1012.9 -0.9 58
2020-03-11 16:00:00 18.4 13 Sudeste 21 Sur 0 1013.1 -1.6 57
2020-03-11 15:00:00 19.5 8 Sur 17 Sudeste 0 1013.2 -2 52
2020-03-11 14:00:00 18.5 8 Sudeste 21 Sur 0 1013.8 -1.5 51
2020-03-11 13:00:00 17.6 13 Sudeste 21 Sudeste 0 1014.7 -0.3 51
2020-03-11 12:00:00 17.9 9 Sudeste 17 Este 0 1015.2 0.8 51
2020-03-11 11:00:00 17.2 12 Sudeste 17 Sudeste 0 1015.3 1.3 54
2020-03-11 10:00:00 16.1 7 Sudeste 13 Sudeste 0 1015 1.6 58
2020-03-11 09:00:00 13.6 6 Norte 15 Nordeste 0 1014.4 1.4 70
2020-03-11 08:00:00 8.3 11 Norte 13 Norte 0 1014 0.9 93
2020-03-11 07:00:00 7 9 Norte 15 Norte 0 1013.4 0.3 95
2020-03-11 06:00:00 7.8 8 Nordeste 15 Nordeste 0 1013 -0.4 96
2020-03-11 05:00:00 8.6 12 Norte 15 Norte 0 1013.1 -0.8 93
2020-03-11 04:00:00 9.2 11 Norte 17 Norte 0 1013.1 -1 88
2020-03-11 03:00:00 8 11 Norte 17 Norte 0 1013.4 -1.1 89
2020-03-11 02:00:00 6.6 10 Norte 11 Norte 0 1013.9 -1 91
2020-03-11 01:00:00 7 9 Nordeste 11 Nordeste 0 1014.1 -0.7 92
2020-03-11 00:00:00 8.6 8 Nordeste 15 Norte 0 1014.5 -0.2 88